»·PEaware :: N675FA KTUS-KPHX

N675FA :: KTUS-KPHX

FLIGHT INFORMATION

Flight Status: Arrived
Operator: Privately registered:
United States
More flights under this callsign
Pilot: Scott U. (42603)
Aircraft: Diamond DA-62
(DA62)
More flights by this aircraft type
Origin: KTUS Tucson Intl
United States
Destination: KPHX Phoenix Sky Harbor Intl
United States
More flights between these airports :: More routes between these airports
Route:
File this flight plan on PilotEdge
Remarks:
Altitude:
(Current/Filed)
6,500ft
Speed:
(Current/Filed)
0kts
Departed: 04-Jun-23 10:48 AM
Arrived: 04-Jun-23 11:25 AM
Distance/Time
Traveled:
1782nm/0:37
Distance/Time
To Go:
Arrived

Flight Plot

Page will automatically refresh every two minutes.

Flight plan parsing failed; only flown route is shown


Map Options




Map Legend


Flown Route
Filed Route
Departure Airport
Arrival Airport
Navaid (VOR, NDB)
Fix

Horizontal Profiles

Position Reports

Time Latitude Longitude Heading Altitude Ground
Speed
04-Jun-23 10:36 32.127364 -110.943708 316 2570ft 0kts
04-Jun-23 10:37 32.127364 -110.943708 316 2570ft 0kts
04-Jun-23 10:38 32.127364 -110.943708 316 2570ft 0kts
04-Jun-23 10:39 32.127364 -110.943708 316 2570ft 0kts
04-Jun-23 10:40 32.125727 -110.946521 227 2567ft 34kts
04-Jun-23 10:41 32.120815 -110.942414 126 2588ft 37kts
04-Jun-23 10:42 32.113545 -110.933914 136 2611ft 37kts
04-Jun-23 10:43 32.106049 -110.925077 137 2638ft 37kts
04-Jun-23 10:44 32.103172 -110.922428 218 2643ft 0kts
04-Jun-23 10:45 32.103172 -110.922428 218 2643ft 0kts
04-Jun-23 10:46 32.103172 -110.922428 218 2643ft 0kts
04-Jun-23 10:47 32.103171 -110.922430 218 2643ft 0kts
04-Jun-23 10:48 32.113869 -110.937224 312 3090ft 96kts
04-Jun-23 10:49 32.135066 -110.960786 347 3927ft 131kts
04-Jun-23 10:50 32.171151 -110.984961 325 4369ft 153kts
04-Jun-23 10:51 32.206688 -111.013360 325 5217ft 155kts
04-Jun-23 10:52 32.242840 -111.042277 326 6029ft 158kts
04-Jun-23 10:53 32.281517 -111.073247 326 6417ft 182kts
04-Jun-23 10:54 32.324749 -111.107904 325 6403ft 189kts
04-Jun-23 10:55 32.368579 -111.143077 325 6414ft 189kts
04-Jun-23 10:56 32.411935 -111.177912 325 6411ft 188kts
04-Jun-23 10:57 32.455218 -111.212728 325 6412ft 187kts
04-Jun-23 10:57 32.491298 -111.241781 325 6404ft 189kts
04-Jun-23 10:58 32.534736 -111.276795 325 6408ft 189kts
04-Jun-23 11:00 32.585146 -111.317497 325 6476ft 189kts
04-Jun-23 11:01 32.628844 -111.352813 325 6464ft 190kts
04-Jun-23 11:02 32.655495 -111.404709 295 6460ft 191kts
04-Jun-23 11:02 32.681074 -111.447905 311 6441ft 192kts
04-Jun-23 11:03 32.717340 -111.494972 311 6444ft 195kts
04-Jun-23 11:04 32.753644 -111.542112 311 6453ft 193kts
04-Jun-23 11:06 32.795790 -111.596912 311 6463ft 191kts
04-Jun-23 11:06 32.825804 -111.635985 311 6479ft 192kts
04-Jun-23 11:07 32.861963 -111.683105 312 6492ft 193kts
04-Jun-23 11:08 32.898072 -111.730151 311 6500ft 192kts
04-Jun-23 11:09 32.933817 -111.776721 311 6552ft 192kts
04-Jun-23 11:10 32.970029 -111.823912 311 6552ft 192kts
04-Jun-23 11:11 33.005947 -111.870788 311 6548ft 192kts
04-Jun-23 11:12 33.044118 -111.915203 318 6468ft 195kts
04-Jun-23 11:13 33.086091 -111.958576 318 5881ft 194kts
04-Jun-23 11:14 33.124151 -111.998218 318 5171ft 176kts
04-Jun-23 11:15 33.162281 -112.032816 327 4519ft 168kts
04-Jun-23 11:16 33.204377 -112.044444 350 4481ft 149kts
04-Jun-23 11:17 33.242624 -112.051726 350 4460ft 131kts
04-Jun-23 11:18 33.277936 -112.058370 350 4405ft 133kts
04-Jun-23 11:19 33.318596 -112.065532 350 3689ft 155kts
04-Jun-23 11:20 33.361658 -112.071412 353 2949ft 156kts
04-Jun-23 11:21 33.403009 -112.074034 359 2324ft 124kts
04-Jun-23 11:22 33.430101 -112.058337 75 1785ft 122kts
04-Jun-23 11:23 33.428892 -112.023496 93 1119ft 69kts
04-Jun-23 11:24 33.427986 -112.016556 182 1120ft 0kts
04-Jun-23 11:25 33.427921 -112.016587 211 1124ft 8kts
04-Jun-23 11:26 33.425580 -112.021088 173 1124ft 8kts
04-Jun-23 11:31 40.137869 -75.264210 51 322ft 67kts
04-Jun-23 11:32 40.149336 -75.251549 323 1327ft 64kts
04-Jun-23 11:33 40.140684 -75.280932 240 1406ft 99kts
04-Jun-23 11:34 40.124459 -75.284115 54 601ft 69kts
04-Jun-23 11:35 40.136065 -75.267795 55 295ft 34kts
04-Jun-23 11:36 40.134191 -75.270011 312 301ft 8kts
04-Jun-23 11:37 40.141510 -75.255937 63 736ft 68kts
04-Jun-23 11:38 40.149274 -75.265139 243 1567ft 94kts

Navigation Log

Ident Type
Flight plan parsing failed, navigation log unavailable